Decoded Metar for UKDE (MOKRAYA in UKRAINE) (IATA:OZH) | Meteo·Mobile Aviation Weather
aviador You're here:

UKDE Decoded Metar

MOKRAYA in UKRAINE
Report Time2019-01-17 22:30:00
UTC Time2019-01-17 23:00:58
Flight Rules ifr IFR
Wind170° at 12 kt
W.Decomp.*RWY 20: 9.9 kt HW 6.7 kt LCW
W.Rank170° ranks 23
Current wind is above 170° avg. (7.3)
Visibility9999 m
Phenomena:N/A
Clouds:Overcast 006 Hf
Ceiling600 ft
Temp-2°C (ISA -16)
Dew Point-2°C (100% RH)
AAT-8.6°C
QNH1017 hPa
Density Alt-1,686 ft
Elevation371 ft
Report Wrong Elevation
Raw Report
UKDE 172230Z 17006MPS 130V220 9999 OVC006 M02/M02 Q1017
R20L/710370 NOSIG=

Extra information for UKDE:More info

Metar Taf Metar & Taf Last 4 Metars F.Rules Stats Wind Profile Meteogram Temp Stats Airport Information Weather charts Add Link Nearby VenuesMetar ALERT Operation Metar Decoded Social comments